sensor_id;sensor_type;location;lat;lon;timestamp;pressure;altitude;pressure_sealevel;temperature;humidity
54389;BME280;40975;50.390;8.640;2024-03-02T00:00:19;97925.38;;;2.44;100.00
54389;BME280;40975;50.390;8.640;2024-03-02T00:02:50;97921.06;;;2.54;100.00
54389;BME280;40975;50.390;8.640;2024-03-02T00:05:17;97921.53;;;2.59;100.00
54389;BME280;40975;50.390;8.640;2024-03-02T00:07:44;97913.41;;;2.62;100.00
54389;BME280;40975;50.390;8.640;2024-03-02T00:10:13;97922.72;;;2.55;100.00
54389;BME280;40975;50.390;8.640;2024-03-02T00:12:39;97922.88;;;2.54;100.00
54389;BME280;40975;50.390;8.640;2024-03-02T00:15:25;97916.06;;;2.51;100.00
54389;BME280;40975;50.390;8.640;2024-03-02T00:17:55;97913.81;;;2.46;100.00
54389;BME280;40975;50.390;8.640;2024-03-02T00:20:23;97909.81;;;2.42;100.00
54389;BME280;40975;50.390;8.640;2024-03-02T00:22:50;97911.00;;;2.38;100.00
54389;BME280;40975;50.390;8.640;2024-03-02T00:25:16;97902.00;;;2.31;100.00
54389;BME280;40975;50.390;8.640;2024-03-02T00:27:41;97908.75;;;2.33;100.00
54389;BME280;40975;50.390;8.640;2024-03-02T00:33:18;97907.84;;;2.23;100.00
54389;BME280;40975;50.390;8.640;2024-03-02T00:35:44;97905.47;;;2.20;100.00
54389;BME280;40975;50.390;8.640;2024-03-02T00:38:10;97908.00;;;2.10;100.00
54389;BME280;40975;50.390;8.640;2024-03-02T00:40:35;97904.09;;;2.05;100.00
54389;BME280;40975;50.390;8.640;2024-03-02T00:43:01;97897.41;;;2.00;100.00
54389;BME280;40975;50.390;8.640;2024-03-02T00:45:28;97904.47;;;1.89;100.00
54389;BME280;40975;50.390;8.640;2024-03-02T00:47:54;97906.13;;;1.90;100.00
54389;BME280;40975;50.390;8.640;2024-03-02T00:50:19;97904.03;;;1.72;100.00
54389;BME280;40975;50.390;8.640;2024-03-02T00:52:46;97904.25;;;1.69;100.00
54389;BME280;40975;50.390;8.640;2024-03-02T00:55:13;97902.94;;;1.63;100.00
54389;BME280;40975;50.390;8.640;2024-03-02T00:57:39;97907.22;;;1.64;100.00
54389;BME280;40975;50.390;8.640;2024-03-02T01:00:05;97905.34;;;1.66;100.00
54389;BME280;40975;50.390;8.640;2024-03-02T01:02:34;97898.31;;;1.55;100.00
54389;BME280;40975;50.390;8.640;2024-03-02T01:04:59;97899.03;;;1.58;100.00
54389;BME280;40975;50.390;8.640;2024-03-02T01:07:25;97894.75;;;1.57;100.00
54389;BME280;40975;50.390;8.640;2024-03-02T01:09:50;97903.31;;;1.47;100.00
54389;BME280;40975;50.390;8.640;2024-03-02T01:12:15;97899.38;;;1.42;100.00
54389;BME280;40975;50.390;8.640;2024-03-02T01:14:41;97897.47;;;1.44;100.00
54389;BME280;40975;50.390;8.640;2024-03-02T01:17:06;97892.25;;;1.44;100.00
54389;BME280;40975;50.390;8.640;2024-03-02T01:19:31;97892.13;;;1.45;100.00
54389;BME280;40975;50.390;8.640;2024-03-02T01:21:57;97895.34;;;1.37;100.00
54389;BME280;40975;50.390;8.640;2024-03-02T01:24:22;97904.94;;;1.26;100.00
54389;BME280;40975;50.390;8.640;2024-03-02T01:26:47;97904.84;;;1.27;100.00
54389;BME280;40975;50.390;8.640;2024-03-02T01:29:13;97910.09;;;1.27;100.00
54389;BME280;40975;50.390;8.640;2024-03-02T01:31:38;97908.06;;;1.31;100.00
54389;BME280;40975;50.390;8.640;2024-03-02T01:34:07;97899.88;;;1.35;100.00
54389;BME280;40975;50.390;8.640;2024-03-02T01:36:32;97905.91;;;1.36;100.00
54389;BME280;40975;50.390;8.640;2024-03-02T01:38:57;97907.47;;;1.38;100.00
54389;BME280;40975;50.390;8.640;2024-03-02T01:41:23;97895.22;;;1.39;100.00
54389;BME280;40975;50.390;8.640;2024-03-02T01:43:48;97896.66;;;1.43;100.00
54389;BME280;40975;50.390;8.640;2024-03-02T01:46:13;97895.72;;;1.44;100.00
54389;BME280;40975;50.390;8.640;2024-03-02T01:48:39;97882.50;;;1.46;100.00
54389;BME280;40975;50.390;8.640;2024-03-02T01:51:04;97892.63;;;1.50;100.00
54389;BME280;40975;50.390;8.640;2024-03-02T01:53:31;97887.38;;;1.39;100.00
54389;BME280;40975;50.390;8.640;2024-03-02T01:55:57;97882.28;;;1.37;100.00
54389;BME280;40975;50.390;8.640;2024-03-02T01:58:22;97874.06;;;1.31;100.00
54389;BME280;40975;50.390;8.640;2024-03-02T02:00:47;97883.22;;;1.25;100.00
54389;BME280;40975;50.390;8.640;2024-03-02T02:03:13;97876.91;;;1.28;100.00
54389;BME280;40975;50.390;8.640;2024-03-02T02:05:38;97872.41;;;1.30;100.00
54389;BME280;40975;50.390;8.640;2024-03-02T02:08:04;97869.19;;;1.26;100.00
54389;BME280;40975;50.390;8.640;2024-03-02T02:10:29;97857.66;;;1.17;100.00
54389;BME280;40975;50.390;8.640;2024-03-02T02:12:54;97860.19;;;1.19;100.00
54389;BME280;40975;50.390;8.640;2024-03-02T02:15:30;97860.63;;;1.13;100.00
54389;BME280;40975;50.390;8.640;2024-03-02T02:17:56;97850.19;;;1.13;100.00
54389;BME280;40975;50.390;8.640;2024-03-02T02:20:22;97845.91;;;1.12;100.00
54389;BME280;40975;50.390;8.640;2024-03-02T02:23:01;97844.13;;;1.01;100.00
54389;BME280;40975;50.390;8.640;2024-03-02T02:25:27;97838.91;;;1.01;100.00
54389;BME280;40975;50.390;8.640;2024-03-02T02:27:52;97847.81;;;0.98;100.00
54389;BME280;40975;50.390;8.640;2024-03-02T02:30:22;97842.47;;;1.00;100.00
54389;BME280;40975;50.390;8.640;2024-03-02T02:32:47;97839.25;;;0.96;100.00
54389;BME280;40975;50.390;8.640;2024-03-02T02:35:13;97839.47;;;0.93;100.00
54389;BME280;40975;50.390;8.640;2024-03-02T02:37:38;97844.81;;;0.91;100.00
54389;BME280;40975;50.390;8.640;2024-03-02T02:40:04;97844.22;;;0.88;100.00
54389;BME280;40975;50.390;8.640;2024-03-02T02:42:30;97836.63;;;0.85;100.00
54389;BME280;40975;50.390;8.640;2024-03-02T02:44:55;97841.25;;;0.81;100.00
54389;BME280;40975;50.390;8.640;2024-03-02T02:47:20;97833.63;;;0.78;100.00
54389;BME280;40975;50.390;8.640;2024-03-02T02:49:46;97823.84;;;0.57;100.00
54389;BME280;40975;50.390;8.640;2024-03-02T02:52:11;97834.81;;;0.63;100.00
54389;BME280;40975;50.390;8.640;2024-03-02T02:54:37;97834.31;;;0.57;100.00
54389;BME280;40975;50.390;8.640;2024-03-02T02:57:02;97826.03;;;0.64;100.00
54389;BME280;40975;50.390;8.640;2024-03-02T02:59:28;97824.59;;;0.59;100.00
54389;BME280;40975;50.390;8.640;2024-03-02T03:01:53;97822.78;;;0.60;100.00
54389;BME280;40975;50.390;8.640;2024-03-02T03:04:19;97822.31;;;0.55;100.00
54389;BME280;40975;50.390;8.640;2024-03-02T03:06:44;97823.84;;;0.57;100.00
54389;BME280;40975;50.390;8.640;2024-03-02T03:09:11;97821.75;;;0.63;100.00
54389;BME280;40975;50.390;8.640;2024-03-02T03:11:36;97827.31;;;0.58;100.00
54389;BME280;40975;50.390;8.640;2024-03-02T03:14:02;97820.88;;;0.51;100.00
54389;BME280;40975;50.390;8.640;2024-03-02T03:16:27;97822.44;;;0.53;100.00
54389;BME280;40975;50.390;8.640;2024-03-02T03:18:52;97818.63;;;0.57;100.00
54389;BME280;40975;50.390;8.640;2024-03-02T03:21:18;97822.91;;;0.58;100.00
54389;BME280;40975;50.390;8.640;2024-03-02T03:23:44;97815.91;;;0.48;100.00
54389;BME280;40975;50.390;8.640;2024-03-02T03:26:09;97828.69;;;0.39;100.00
54389;BME280;40975;50.390;8.640;2024-03-02T03:28:34;97817.53;;;0.37;100.00
54389;BME280;40975;50.390;8.640;2024-03-02T03:30:59;97814.06;;;0.37;100.00
54389;BME280;40975;50.390;8.640;2024-03-02T03:33:25;97816.69;;;0.37;100.00
54389;BME280;40975;50.390;8.640;2024-03-02T03:35:50;97821.81;;;0.38;100.00
54389;BME280;40975;50.390;8.640;2024-03-02T03:38:15;97824.63;;;0.35;100.00
54389;BME280;40975;50.390;8.640;2024-03-02T03:40:41;97824.63;;;0.35;100.00
54389;BME280;40975;50.390;8.640;2024-03-02T03:43:06;97818.34;;;0.38;100.00
54389;BME280;40975;50.390;8.640;2024-03-02T03:45:32;97821.81;;;0.38;100.00
54389;BME280;40975;50.390;8.640;2024-03-02T03:47:57;97814.06;;;0.37;100.00
54389;BME280;40975;50.390;8.640;2024-03-02T03:50:22;97818.34;;;0.38;100.00
54389;BME280;40975;50.390;8.640;2024-03-02T03:52:48;97815.75;;;0.38;100.00
54389;BME280;40975;50.390;8.640;2024-03-02T03:55:13;97821.31;;;0.33;100.00
54389;BME280;40975;50.390;8.640;2024-03-02T03:57:38;97813.00;;;0.28;100.00
54389;BME280;40975;50.390;8.640;2024-03-02T04:00:04;97816.94;;;0.34;100.00
54389;BME280;40975;50.390;8.640;2024-03-02T04:02:37;97826.75;;;0.30;100.00
54389;BME280;40975;50.390;8.640;2024-03-02T04:05:03;97830.06;;;0.32;100.00
54389;BME280;40975;50.390;8.640;2024-03-02T04:07:33;97839.22;;;0.38;100.00
54389;BME280;40975;50.390;8.640;2024-03-02T04:09:58;97831.53;;;0.36;100.00
54389;BME280;40975;50.390;8.640;2024-03-02T04:12:23;97831.91;;;0.43;100.00
54389;BME280;40975;50.390;8.640;2024-03-02T04:14:49;97820.28;;;0.47;100.00
54389;BME280;40975;50.390;8.640;2024-03-02T04:17:14;97822.41;;;0.42;100.00
54389;BME280;40975;50.390;8.640;2024-03-02T04:19:39;97820.75;;;0.41;100.00
54389;BME280;40975;50.390;8.640;2024-03-02T04:22:05;97819.56;;;0.45;100.00
54389;BME280;40975;50.390;8.640;2024-03-02T04:24:30;97821.34;;;0.44;100.00
54389;BME280;40975;50.390;8.640;2024-03-02T04:26:55;97822.78;;;0.49;100.00
54389;BME280;40975;50.390;8.640;2024-03-02T04:29:21;97826.59;;;0.56;100.00
54389;BME280;40975;50.390;8.640;2024-03-02T04:31:46;97819.00;;;0.53;100.00
54389;BME280;40975;50.390;8.640;2024-03-02T04:34:12;97814.72;;;0.52;100.00
54389;BME280;40975;50.390;8.640;2024-03-02T04:36:37;97813.19;;;0.60;100.00
54389;BME280;40975;50.390;8.640;2024-03-02T04:39:02;97819.16;;;0.74;100.00
54389;BME280;40975;50.390;8.640;2024-03-02T04:41:28;97820.13;;;0.73;100.00
54389;BME280;40975;50.390;8.640;2024-03-02T04:43:53;97822.38;;;0.77;100.00
54389;BME280;40975;50.390;8.640;2024-03-02T04:46:18;97819.50;;;0.81;100.00
54389;BME280;40975;50.390;8.640;2024-03-02T04:48:43;97823.44;;;0.86;100.00
54389;BME280;40975;50.390;8.640;2024-03-02T04:51:09;97820.47;;;0.91;100.00
54389;BME280;40975;50.390;8.640;2024-03-02T04:53:35;97824.66;;;0.93;100.00
54389;BME280;40975;50.390;8.640;2024-03-02T04:56:00;97824.41;;;0.97;100.00
54389;BME280;40975;50.390;8.640;2024-03-02T04:58:44;97831.28;;;0.98;100.00
54389;BME280;40975;50.390;8.640;2024-03-02T05:01:09;97833.19;;;0.96;100.00
54389;BME280;40975;50.390;8.640;2024-03-02T05:03:34;97836.50;;;0.98;100.00
54389;BME280;40975;50.390;8.640;2024-03-02T05:06:00;97828.81;;;0.96;100.00
54389;BME280;40975;50.390;8.640;2024-03-02T05:08:25;97831.63;;;0.93;100.00
54389;BME280;40975;50.390;8.640;2024-03-02T05:10:50;97831.19;;;0.88;100.00
54389;BME280;40975;50.390;8.640;2024-03-02T05:13:16;97844.31;;;0.86;100.00
54389;BME280;40975;50.390;8.640;2024-03-02T05:15:42;97838.41;;;0.84;100.00
54389;BME280;40975;50.390;8.640;2024-03-02T05:18:08;97838.41;;;0.84;100.00
54389;BME280;40975;50.390;8.640;2024-03-02T05:20:34;97837.09;;;0.79;100.00
54389;BME280;40975;50.390;8.640;2024-03-02T05:22:59;97840.88;;;0.74;100.00
54389;BME280;40975;50.390;8.640;2024-03-02T05:25:24;97838.50;;;0.71;100.00
54389;BME280;40975;50.390;8.640;2024-03-02T05:27:50;97844.06;;;0.67;100.00
54389;BME280;40975;50.390;8.640;2024-03-02T05:30:15;97845.13;;;0.64;100.00
54389;BME280;40975;50.390;8.640;2024-03-02T05:32:40;97852.16;;;0.64;100.00
54389;BME280;40975;50.390;8.640;2024-03-02T05:35:06;97855.69;;;0.63;100.00
54389;BME280;40975;50.390;8.640;2024-03-02T05:37:32;97859.59;;;0.57;100.00
54389;BME280;40975;50.390;8.640;2024-03-02T05:39:57;97849.59;;;0.51;100.00
54389;BME280;40975;50.390;8.640;2024-03-02T05:42:24;97853.41;;;0.46;100.00
54389;BME280;40975;50.390;8.640;2024-03-02T05:44:49;97849.69;;;0.38;100.00
54389;BME280;40975;50.390;8.640;2024-03-02T05:47:15;97862.50;;;0.41;100.00
54389;BME280;40975;50.390;8.640;2024-03-02T05:49:40;97854.47;;;0.44;100.00
54389;BME280;40975;50.390;8.640;2024-03-02T05:52:05;97860.16;;;0.49;100.00
54389;BME280;40975;50.390;8.640;2024-03-02T05:54:31;97857.44;;;0.51;100.00
54389;BME280;40975;50.390;8.640;2024-03-02T05:56:57;97864.81;;;0.57;100.00
54389;BME280;40975;50.390;8.640;2024-03-02T05:59:22;97862.94;;;0.59;100.00
54389;BME280;40975;50.390;8.640;2024-03-02T06:01:48;97864.94;;;0.67;100.00
54389;BME280;40975;50.390;8.640;2024-03-02T06:04:15;97858.91;;;0.66;100.00
54389;BME280;40975;50.390;8.640;2024-03-02T06:06:41;97864.97;;;0.78;100.00
54389;BME280;40975;50.390;8.640;2024-03-02T06:09:06;97873.53;;;0.80;100.00
54389;BME280;40975;50.390;8.640;2024-03-02T06:11:38;97871.31;;;0.87;100.00
54389;BME280;40975;50.390;8.640;2024-03-02T06:14:04;97877.59;;;0.84;100.00
54389;BME280;40975;50.390;8.640;2024-03-02T06:16:30;97879.00;;;0.88;100.00
54389;BME280;40975;50.390;8.640;2024-03-02T06:18:56;97878.78;;;0.91;100.00
54389;BME280;40975;50.390;8.640;2024-03-02T06:21:26;97878.44;;;0.96;100.00
54389;BME280;40975;50.390;8.640;2024-03-02T06:23:52;97880.69;;;1.01;100.00
54389;BME280;40975;50.390;8.640;2024-03-02T06:26:17;97885.72;;;1.04;100.00
54389;BME280;40975;50.390;8.640;2024-03-02T06:28:43;97883.44;;;1.11;100.00
54389;BME280;40975;50.390;8.640;2024-03-02T06:31:09;97891.63;;;1.17;100.00
54389;BME280;40975;50.390;8.640;2024-03-02T06:33:35;97887.00;;;1.21;100.00
54389;BME280;40975;50.390;8.640;2024-03-02T06:36:00;97894.75;;;1.34;100.00
54389;BME280;40975;50.390;8.640;2024-03-02T06:38:26;97898.56;;;1.41;100.00
54389;BME280;40975;50.390;8.640;2024-03-02T06:40:51;97897.13;;;1.48;100.00
54389;BME280;40975;50.390;8.640;2024-03-02T06:43:16;97893.56;;;1.49;100.00
54389;BME280;40975;50.390;8.640;2024-03-02T06:45:42;97897.94;;;1.60;100.00
54389;BME280;40975;50.390;8.640;2024-03-02T06:48:07;97895.22;;;1.62;100.00
54389;BME280;40975;50.390;8.640;2024-03-02T06:50:32;97902.94;;;1.63;100.00
54389;BME280;40975;50.390;8.640;2024-03-02T06:52:58;97897.25;;;1.58;100.00
54389;BME280;40975;50.390;8.640;2024-03-02T06:55:23;97906.50;;;1.62;100.00
54389;BME280;40975;50.390;8.640;2024-03-02T06:57:50;97902.00;;;1.64;100.00
54389;BME280;40975;50.390;8.640;2024-03-02T07:00:15;97902.22;;;1.61;100.00
54389;BME280;40975;50.390;8.640;2024-03-02T07:02:43;97904.03;;;1.61;100.00
54389;BME280;40975;50.390;8.640;2024-03-02T07:05:08;97901.41;;;1.49;100.00
54389;BME280;40975;50.390;8.640;2024-03-02T07:07:34;97904.75;;;1.51;100.00
54389;BME280;40975;50.390;8.640;2024-03-02T07:10:04;97905.19;;;1.57;100.00
54389;BME280;40975;50.390;8.640;2024-03-02T07:12:29;97922.44;;;1.70;100.00
54389;BME280;40975;50.390;8.640;2024-03-02T07:14:55;97920.88;;;1.79;100.00
54389;BME280;40975;50.390;8.640;2024-03-02T07:17:29;97924.44;;;1.90;100.00
54389;BME280;40975;50.390;8.640;2024-03-02T07:19:55;97917.53;;;1.89;100.00
54389;BME280;40975;50.390;8.640;2024-03-02T07:22:21;97923.50;;;1.91;100.00
54389;BME280;40975;50.390;8.640;2024-03-02T07:24:46;97923.25;;;1.94;100.00
54389;BME280;40975;50.390;8.640;2024-03-02T07:27:12;97921.34;;;1.96;100.00
54389;BME280;40975;50.390;8.640;2024-03-02T07:29:39;97920.88;;;2.02;100.00
54389;BME280;40975;50.390;8.640;2024-03-02T07:32:06;97927.28;;;2.09;100.00
54389;BME280;40975;50.390;8.640;2024-03-02T07:34:31;97912.16;;;2.13;100.00
54389;BME280;40975;50.390;8.640;2024-03-02T07:36:57;97923.06;;;2.29;100.00
54389;BME280;40975;50.390;8.640;2024-03-02T07:39:22;97929.34;;;2.27;100.00
54389;BME280;40975;50.390;8.640;2024-03-02T07:41:48;97929.94;;;2.30;100.00
54389;BME280;40975;50.390;8.640;2024-03-02T07:44:14;97931.34;;;2.46;100.00
54389;BME280;40975;50.390;8.640;2024-03-02T07:46:40;97939.81;;;2.71;100.00
54389;BME280;40975;50.390;8.640;2024-03-02T07:49:06;97940.94;;;3.10;100.00
54389;BME280;40975;50.390;8.640;2024-03-02T07:51:31;97940.38;;;3.59;100.00
54389;BME280;40975;50.390;8.640;2024-03-02T07:53:56;97940.50;;;3.57;100.00
54389;BME280;40975;50.390;8.640;2024-03-02T07:56:22;97943.72;;;3.71;100.00
54389;BME280;40975;50.390;8.640;2024-03-02T07:58:48;97939.78;;;4.96;100.00
54389;BME280;40975;50.390;8.640;2024-03-02T08:01:14;97943.97;;;5.94;100.00
54389;BME280;40975;50.390;8.640;2024-03-02T08:03:40;97941.50;;;6.92;100.00
54389;BME280;40975;50.390;8.640;2024-03-02T08:06:05;97946.63;;;7.38;100.00
54389;BME280;40975;50.390;8.640;2024-03-02T08:08:31;97946.06;;;8.22;100.00
54389;BME280;40975;50.390;8.640;2024-03-02T08:10:56;97945.72;;;8.76;95.65
54389;BME280;40975;50.390;8.640;2024-03-02T08:13:22;97940.44;;;8.84;92.97
54389;BME280;40975;50.390;8.640;2024-03-02T08:15:47;97942.03;;;9.43;91.10
54389;BME280;40975;50.390;8.640;2024-03-02T08:18:12;97943.56;;;8.96;91.55
54389;BME280;40975;50.390;8.640;2024-03-02T08:20:38;97948.50;;;8.58;93.28
54389;BME280;40975;50.390;8.640;2024-03-02T08:23:04;97956.97;;;8.27;96.25
54389;BME280;40975;50.390;8.640;2024-03-02T08:25:30;97955.75;;;8.05;96.45
54389;BME280;40975;50.390;8.640;2024-03-02T08:27:55;97959.44;;;7.86;99.21
54389;BME280;40975;50.390;8.640;2024-03-02T08:30:20;97957.38;;;7.98;100.00
54389;BME280;40975;50.390;8.640;2024-03-02T08:32:46;97958.84;;;7.92;100.00
54389;BME280;40975;50.390;8.640;2024-03-02T08:35:12;97958.88;;;8.08;100.00
54389;BME280;40975;50.390;8.640;2024-03-02T08:37:39;97957.88;;;8.01;100.00
54389;BME280;40975;50.390;8.640;2024-03-02T08:40:07;97964.59;;;7.87;100.00
54389;BME280;40975;50.390;8.640;2024-03-02T08:42:33;97968.53;;;7.83;100.00
54389;BME280;40975;50.390;8.640;2024-03-02T08:44:58;97965.09;;;7.91;100.00
54389;BME280;40975;50.390;8.640;2024-03-02T08:47:26;97961.81;;;7.97;100.00
54389;BME280;40975;50.390;8.640;2024-03-02T08:49:51;97973.13;;;7.81;100.00
54389;BME280;40975;50.390;8.640;2024-03-02T08:52:17;97975.00;;;7.62;100.00
54389;BME280;40975;50.390;8.640;2024-03-02T08:54:42;97983.31;;;7.68;100.00
54389;BME280;40975;50.390;8.640;2024-03-02T08:57:07;97984.25;;;7.58;100.00
54389;BME280;40975;50.390;8.640;2024-03-02T08:59:33;97981.97;;;7.45;100.00
54389;BME280;40975;50.390;8.640;2024-03-02T09:01:58;97989.25;;;7.43;100.00
54389;BME280;40975;50.390;8.640;2024-03-02T09:04:24;97982.78;;;7.38;100.00
54389;BME280;40975;50.390;8.640;2024-03-02T09:06:49;97982.66;;;7.47;100.00
54389;BME280;40975;50.390;8.640;2024-03-02T09:09:15;97982.19;;;7.52;100.00
54389;BME280;40975;50.390;8.640;2024-03-02T09:11:40;97986.03;;;7.58;100.00
54389;BME280;40975;50.390;8.640;2024-03-02T09:14:05;97981.59;;;7.58;100.00
54389;BME280;40975;50.390;8.640;2024-03-02T09:16:31;97983.41;;;7.58;100.00
54389;BME280;40975;50.390;8.640;2024-03-02T09:18:57;97989.09;;;7.71;100.00
54389;BME280;40975;50.390;8.640;2024-03-02T09:21:22;97982.88;;;7.81;100.00
54389;BME280;40975;50.390;8.640;2024-03-02T09:23:48;97980.78;;;7.92;100.00
54389;BME280;40975;50.390;8.640;2024-03-02T09:26:13;97976.84;;;7.97;100.00
54389;BME280;40975;50.390;8.640;2024-03-02T09:28:42;97975.91;;;8.06;100.00
54389;BME280;40975;50.390;8.640;2024-03-02T09:31:08;97978.97;;;8.28;100.00
54389;BME280;40975;50.390;8.640;2024-03-02T09:33:33;97977.84;;;8.47;100.00
54389;BME280;40975;50.390;8.640;2024-03-02T09:35:58;97972.78;;;8.62;100.00
54389;BME280;40975;50.390;8.640;2024-03-02T09:38:24;97963.91;;;10.10;97.53
54389;BME280;40975;50.390;8.640;2024-03-02T09:40:49;97952.19;;;10.67;88.09
54389;BME280;40975;50.390;8.640;2024-03-02T09:43:15;97957.88;;;11.26;83.36
54389;BME280;40975;50.390;8.640;2024-03-02T09:45:40;97946.34;;;10.95;83.53
54389;BME280;40975;50.390;8.640;2024-03-02T09:48:06;97952.72;;;11.09;80.38
54389;BME280;40975;50.390;8.640;2024-03-02T09:50:32;97947.69;;;11.14;81.40
54389;BME280;40975;50.390;8.640;2024-03-02T09:52:58;97936.00;;;10.22;80.84
54389;BME280;40975;50.390;8.640;2024-03-02T09:55:24;97937.97;;;9.80;83.53
54389;BME280;40975;50.390;8.640;2024-03-02T09:57:50;97937.81;;;9.74;85.04
54389;BME280;40975;50.390;8.640;2024-03-02T10:00:16;97939.84;;;9.63;85.23
54389;BME280;40975;50.390;8.640;2024-03-02T10:02:42;97940.03;;;9.62;87.50
54389;BME280;40975;50.390;8.640;2024-03-02T10:05:10;97941.22;;;9.51;88.03
54389;BME280;40975;50.390;8.640;2024-03-02T10:07:36;97948.84;;;9.29;88.35
54389;BME280;40975;50.390;8.640;2024-03-02T10:10:15;97950.84;;;9.19;88.73
54389;BME280;40975;50.390;8.640;2024-03-02T10:12:41;97956.47;;;9.32;89.43
54389;BME280;40975;50.390;8.640;2024-03-02T10:15:07;97950.34;;;9.32;88.99
54389;BME280;40975;50.390;8.640;2024-03-02T10:17:33;97948.00;;;9.45;89.77
54389;BME280;40975;50.390;8.640;2024-03-02T10:19:58;97947.88;;;9.22;89.47
54389;BME280;40975;50.390;8.640;2024-03-02T10:22:23;97941.59;;;9.31;88.55
54389;BME280;40975;50.390;8.640;2024-03-02T10:24:49;97943.88;;;9.43;90.21
54389;BME280;40975;50.390;8.640;2024-03-02T10:27:23;97942.88;;;9.44;88.72
54389;BME280;40975;50.390;8.640;2024-03-02T10:29:49;97938.28;;;9.94;88.18
54389;BME280;40975;50.390;8.640;2024-03-02T10:32:15;97942.66;;;10.18;86.04
54389;BME280;40975;50.390;8.640;2024-03-02T10:34:44;97937.63;;;10.23;84.51
54389;BME280;40975;50.390;8.640;2024-03-02T10:37:11;97937.97;;;10.60;83.12
54389;BME280;40975;50.390;8.640;2024-03-02T10:39:36;97930.28;;;11.12;79.55
54389;BME280;40975;50.390;8.640;2024-03-02T10:42:03;97913.66;;;11.48;76.88
54389;BME280;40975;50.390;8.640;2024-03-02T10:44:30;97920.75;;;11.86;75.51
54389;BME280;40975;50.390;8.640;2024-03-02T10:46:56;97922.84;;;12.05;74.33
54389;BME280;40975;50.390;8.640;2024-03-02T10:49:26;97920.50;;;13.12;72.42
54389;BME280;40975;50.390;8.640;2024-03-02T10:51:51;97922.03;;;13.28;69.93
54389;BME280;40975;50.390;8.640;2024-03-02T10:54:17;97911.63;;;13.05;68.84
54389;BME280;40975;50.390;8.640;2024-03-02T10:56:44;97903.72;;;13.18;69.33
54389;BME280;40975;50.390;8.640;2024-03-02T11:01:38;97907.66;;;12.72;74.65
54389;BME280;40975;50.390;8.640;2024-03-02T11:04:04;97922.59;;;12.73;76.34
54389;BME280;40975;50.390;8.640;2024-03-02T11:06:34;97910.38;;;12.57;72.05
54389;BME280;40975;50.390;8.640;2024-03-02T11:09:05;97899.94;;;12.41;70.14
54389;BME280;40975;50.390;8.640;2024-03-02T11:11:36;97901.31;;;12.52;69.72
54389;BME280;40975;50.390;8.640;2024-03-02T11:14:04;97903.06;;;12.66;70.72
54389;BME280;40975;50.390;8.640;2024-03-02T11:16:37;97892.34;;;12.38;69.58
54389;BME280;40975;50.390;8.640;2024-03-02T11:19:12;97895.91;;;12.88;69.59
54389;BME280;40975;50.390;8.640;2024-03-02T11:21:38;97892.34;;;12.59;70.16
54389;BME280;40975;50.390;8.640;2024-03-02T11:26:49;97889.66;;;12.38;69.25
54389;BME280;40975;50.390;8.640;2024-03-02T11:32:01;97890.69;;;11.55;72.23
54389;BME280;40975;50.390;8.640;2024-03-02T11:36:54;97901.09;;;12.17;73.77
54389;BME280;40975;50.390;8.640;2024-03-02T11:39:20;97896.31;;;12.27;72.48
54389;BME280;40975;50.390;8.640;2024-03-02T11:41:45;97893.84;;;12.25;71.45
54389;BME280;40975;50.390;8.640;2024-03-02T11:44:10;97898.38;;;12.47;72.06
54389;BME280;40975;50.390;8.640;2024-03-02T11:46:39;97887.34;;;12.28;71.86
54389;BME280;40975;50.390;8.640;2024-03-02T11:49:04;97882.41;;;12.47;70.96
54389;BME280;40975;50.390;8.640;2024-03-02T11:51:33;97877.88;;;12.62;70.73
54389;BME280;40975;50.390;8.640;2024-03-02T11:54:00;97878.53;;;12.27;70.55
54389;BME280;40975;50.390;8.640;2024-03-02T11:56:26;97882.00;;;12.28;70.91
54389;BME280;40975;50.390;8.640;2024-03-02T11:58:53;97868.09;;;12.11;71.25
54389;BME280;40975;50.390;8.640;2024-03-02T12:01:19;97864.19;;;12.28;70.15
54389;BME280;40975;50.390;8.640;2024-03-02T12:03:45;97863.75;;;12.25;70.49
54389;BME280;40975;50.390;8.640;2024-03-02T12:06:11;97863.13;;;12.44;70.97
54389;BME280;40975;50.390;8.640;2024-03-02T12:08:38;97854.44;;;12.14;71.98
54389;BME280;40975;50.390;8.640;2024-03-02T12:11:03;97851.72;;;12.07;73.19
54389;BME280;40975;50.390;8.640;2024-03-02T12:13:29;97860.03;;;12.41;73.20
54389;BME280;40975;50.390;8.640;2024-03-02T12:15:54;97863.22;;;12.51;71.66
54389;BME280;40975;50.390;8.640;2024-03-02T12:18:21;97859.47;;;12.46;72.69
54389;BME280;40975;50.390;8.640;2024-03-02T12:20:49;97859.22;;;13.12;71.95
54389;BME280;40975;50.390;8.640;2024-03-02T12:23:14;97852.63;;;13.08;68.92
54389;BME280;40975;50.390;8.640;2024-03-02T12:25:39;97843.09;;;13.97;67.91
54389;BME280;40975;50.390;8.640;2024-03-02T12:28:05;97845.81;;;14.18;67.67
54389;BME280;40975;50.390;8.640;2024-03-02T12:30:32;97834.88;;;13.50;65.92
54389;BME280;40975;50.390;8.640;2024-03-02T12:33:00;97843.75;;;13.58;66.38
54389;BME280;40975;50.390;8.640;2024-03-02T12:35:25;97830.78;;;13.19;65.98
54389;BME280;40975;50.390;8.640;2024-03-02T12:37:52;97826.50;;;13.25;66.75
54389;BME280;40975;50.390;8.640;2024-03-02T12:40:19;97831.47;;;13.57;66.67
54389;BME280;40975;50.390;8.640;2024-03-02T12:42:45;97820.56;;;13.23;66.85
54389;BME280;40975;50.390;8.640;2024-03-02T12:45:11;97813.03;;;12.48;67.60
54389;BME280;40975;50.390;8.640;2024-03-02T12:47:37;97815.50;;;12.06;67.46
54389;BME280;40975;50.390;8.640;2024-03-02T12:50:05;97820.13;;;12.19;68.14
54389;BME280;40975;50.390;8.640;2024-03-02T12:52:30;97813.34;;;12.17;67.56
54389;BME280;40975;50.390;8.640;2024-03-02T12:54:58;97811.09;;;11.83;68.73
54389;BME280;40975;50.390;8.640;2024-03-02T12:57:28;97803.44;;;11.74;69.93
54389;BME280;40975;50.390;8.640;2024-03-02T13:00:06;97795.22;;;11.54;68.18
54389;BME280;40975;50.390;8.640;2024-03-02T13:02:35;97800.19;;;11.93;67.57
54389;BME280;40975;50.390;8.640;2024-03-02T13:05:01;97796.22;;;11.68;66.65
54389;BME280;40975;50.390;8.640;2024-03-02T13:07:26;97800.56;;;11.90;67.33